createdAt,value
2019-02-25T00:00:15.666Z,65.70
2019-02-25T00:02:42.717Z,65.70
2019-02-25T00:05:09.783Z,65.57
2019-02-25T00:07:36.851Z,65.50
2019-02-25T00:10:04.744Z,65.61
2019-02-25T00:12:31.832Z,65.69
2019-02-25T00:14:58.880Z,65.55
2019-02-25T00:17:25.924Z,65.72
2019-02-25T00:19:52.984Z,66.03
2019-02-25T00:22:20.067Z,66.12
2019-02-25T00:24:47.132Z,65.90
2019-02-25T00:27:14.182Z,65.96
2019-02-25T00:29:41.224Z,65.98
2019-02-25T00:32:08.280Z,65.99
2019-02-25T00:34:35.328Z,66.18
2019-02-25T00:37:02.399Z,66.51
2019-02-25T00:39:29.455Z,66.69
2019-02-25T00:41:56.530Z,66.75
2019-02-25T00:44:23.576Z,66.69
2019-02-25T00:46:50.654Z,66.67
2019-02-25T00:49:17.716Z,66.67
2019-02-25T00:51:44.766Z,66.71
2019-02-25T00:54:11.856Z,66.61
2019-02-25T00:56:38.909Z,66.56
2019-02-25T00:59:06.010Z,66.72
2019-02-25T01:01:33.104Z,66.75
2019-02-25T01:04:00.157Z,66.84
2019-02-25T01:06:27.199Z,66.86
2019-02-25T01:08:54.360Z,66.85
2019-02-25T01:11:21.427Z,67.02
2019-02-25T01:13:48.502Z,67.07
2019-02-25T01:16:15.545Z,67.02
2019-02-25T01:18:42.607Z,66.98
2019-02-25T01:21:09.699Z,66.88
2019-02-25T01:23:36.749Z,66.92
2019-02-25T01:26:03.802Z,66.82
2019-02-25T01:28:30.856Z,66.80
2019-02-25T01:30:57.912Z,66.76
2019-02-25T01:33:24.972Z,66.71
2019-02-25T01:35:52.082Z,66.66
2019-02-25T01:38:19.135Z,66.65
2019-02-25T01:40:46.188Z,66.69
2019-02-25T01:43:13.240Z,66.66
2019-02-25T01:45:40.295Z,66.64
2019-02-25T01:48:07.343Z,66.66
2019-02-25T01:50:34.392Z,66.63
2019-02-25T01:53:01.436Z,66.62
2019-02-25T01:55:28.491Z,66.49
2019-02-25T01:57:55.528Z,66.34
2019-02-25T02:00:22.579Z,66.48
2019-02-25T02:02:49.622Z,66.61
2019-02-25T02:05:16.679Z,66.71
2019-02-25T02:07:43.758Z,66.69
2019-02-25T02:10:11.172Z,66.73
2019-02-25T02:12:38.217Z,66.84
2019-02-25T02:15:07.796Z,66.88
2019-02-25T02:17:34.850Z,66.94
2019-02-25T02:20:01.913Z,67.09
2019-02-25T02:22:28.984Z,67.16
2019-02-25T02:24:56.051Z,67.24
2019-02-25T02:27:23.087Z,67.08
2019-02-25T02:29:50.153Z,67.00
2019-02-25T02:32:17.218Z,67.24
2019-02-25T02:34:44.296Z,67.32
2019-02-25T02:37:11.350Z,67.58
2019-02-25T02:39:38.401Z,67.68
2019-02-25T02:42:10.667Z,67.76
2019-02-25T02:44:37.707Z,67.72
2019-02-25T02:47:44.322Z,67.58
2019-02-25T02:50:14.555Z,67.53
2019-02-25T02:52:41.608Z,67.50
2019-02-25T02:55:08.683Z,67.68
2019-02-25T02:57:35.763Z,67.79
2019-02-25T03:00:03.680Z,67.86
2019-02-25T03:02:30.744Z,68.01
2019-02-25T03:04:57.824Z,67.99
2019-02-25T03:07:24.866Z,67.83
2019-02-25T03:09:51.922Z,67.76
2019-02-25T03:12:18.987Z,68.02
2019-02-25T03:14:46.034Z,68.21
2019-02-25T03:17:13.068Z,68.37
2019-02-25T03:19:40.099Z,68.38
2019-02-25T03:22:07.169Z,68.39
2019-02-25T03:24:34.216Z,68.51
2019-02-25T03:27:01.278Z,68.47
2019-02-25T03:29:28.322Z,68.42
2019-02-25T03:31:55.346Z,68.64
2019-02-25T03:34:22.390Z,68.61
2019-02-25T03:36:49.447Z,68.61
2019-02-25T03:39:16.487Z,68.57
2019-02-25T03:41:43.541Z,68.68
2019-02-25T03:44:10.596Z,68.88
2019-02-25T03:46:37.640Z,68.92
2019-02-25T03:49:04.689Z,68.92
2019-02-25T03:51:31.741Z,69.11
2019-02-25T03:53:58.803Z,69.22
2019-02-25T03:56:25.851Z,69.28
2019-02-25T03:58:52.898Z,69.27
2019-02-25T04:01:19.954Z,69.32
2019-02-25T04:03:46.995Z,69.22
2019-02-25T04:06:14.067Z,69.30
2019-02-25T04:08:41.128Z,69.34
2019-02-25T04:11:08.217Z,69.31
2019-02-25T04:13:35.268Z,69.44
2019-02-25T04:16:02.314Z,69.48
2019-02-25T04:18:29.366Z,69.35
2019-02-25T04:20:56.434Z,69.37
2019-02-25T04:23:23.530Z,69.09
2019-02-25T04:25:50.590Z,69.28
2019-02-25T04:28:17.666Z,69.81
2019-02-25T04:30:44.740Z,69.93
2019-02-25T04:33:11.822Z,69.84
2019-02-25T04:35:38.876Z,69.77
2019-02-25T04:38:05.938Z,69.74
2019-02-25T04:40:32.987Z,69.78
2019-02-25T04:43:00.056Z,69.82
2019-02-25T04:45:27.137Z,69.86
2019-02-25T04:47:54.199Z,69.78
2019-02-25T04:50:21.275Z,69.53
2019-02-25T04:52:48.334Z,69.70
2019-02-25T04:55:19.980Z,69.67
2019-02-25T04:57:47.017Z,69.68
2019-02-25T05:00:15.285Z,69.52
2019-02-25T05:02:42.375Z,69.45
2019-02-25T05:05:09.454Z,69.36
2019-02-25T05:07:36.519Z,69.43
2019-02-25T05:10:03.992Z,69.86
2019-02-25T05:12:31.054Z,69.97
2019-02-25T05:14:58.094Z,69.88
2019-02-25T05:17:25.126Z,69.92
2019-02-25T05:19:52.180Z,69.97
2019-02-25T05:22:19.229Z,69.92
2019-02-25T05:24:46.299Z,69.90
2019-02-25T05:27:13.322Z,69.74
2019-02-25T05:29:40.376Z,69.78
2019-02-25T05:32:07.415Z,69.65
2019-02-25T05:34:34.454Z,69.68
2019-02-25T05:37:01.496Z,69.81
2019-02-25T05:39:28.524Z,69.82
2019-02-25T05:41:55.601Z,69.57
2019-02-25T05:44:22.636Z,69.64
2019-02-25T05:46:49.680Z,69.75
2019-02-25T05:49:16.720Z,69.85
2019-02-25T05:51:43.726Z,69.85
2019-02-25T05:54:10.809Z,69.96
2019-02-25T05:56:37.863Z,69.97
2019-02-25T05:59:04.924Z,69.90
2019-02-25T06:01:31.941Z,69.80
2019-02-25T06:03:59.047Z,70.52
2019-02-25T06:06:26.089Z,71.89
2019-02-25T06:08:53.160Z,72.98
2019-02-25T06:11:20.183Z,73.32
2019-02-25T06:13:47.242Z,71.95
2019-02-25T06:16:14.285Z,71.10
2019-02-25T06:18:41.327Z,71.92
2019-02-25T06:21:08.395Z,70.35
2019-02-25T06:23:35.435Z,71.55
2019-02-25T06:26:02.508Z,68.02
2019-02-25T06:28:29.545Z,67.83
2019-02-25T06:30:56.633Z,69.12
2019-02-25T06:33:23.680Z,65.29
2019-02-25T06:35:50.711Z,63.69
2019-02-25T06:38:17.749Z,63.35
2019-02-25T06:40:44.793Z,63.81
2019-02-25T06:43:11.868Z,64.29
2019-02-25T06:45:38.917Z,64.29
2019-02-25T06:48:05.990Z,65.15
2019-02-25T06:50:33.038Z,66.20
2019-02-25T06:53:00.116Z,66.07
2019-02-25T06:55:27.163Z,66.04
2019-02-25T06:57:54.196Z,65.96
2019-02-25T07:00:21.240Z,66.24
2019-02-25T07:02:48.299Z,66.15
2019-02-25T07:05:26.616Z,66.89
2019-02-25T07:07:56.756Z,66.89
2019-02-25T07:10:37.056Z,66.88
2019-02-25T07:13:29.508Z,67.30
2019-02-25T07:16:14.756Z,67.34
2019-02-25T07:18:53.058Z,67.45
2019-02-25T07:21:39.726Z,67.57
2019-02-25T07:24:13.901Z,67.48
2019-02-25T07:27:12.887Z,67.57
2019-02-25T07:29:59.552Z,68.79
2019-02-25T07:32:55.562Z,68.92
2019-02-25T07:35:45.046Z,67.98
2019-02-25T07:38:39.694Z,67.91
2019-02-25T07:41:29.441Z,67.19
2019-02-25T07:44:16.315Z,66.98
2019-02-25T07:47:08.891Z,66.16
2019-02-25T07:49:55.541Z,66.39
2019-02-25T07:52:42.227Z,66.26
2019-02-25T07:55:23.766Z,66.25
2019-02-25T07:58:14.666Z,66.25
2019-02-25T08:00:55.539Z,66.21
2019-02-25T08:03:48.031Z,66.12
2019-02-25T08:06:28.517Z,65.91
2019-02-25T08:09:14.011Z,65.91
2019-02-25T08:12:02.967Z,65.51
2019-02-25T08:14:51.088Z,65.51
2019-02-25T08:17:41.395Z,65.37
2019-02-25T08:20:33.776Z,65.36
2019-02-25T08:23:20.455Z,65.36
2019-02-25T08:26:09.633Z,65.36
2019-02-25T08:28:59.049Z,65.07
2019-02-25T08:31:42.615Z,64.67
2019-02-25T08:34:32.211Z,64.36
2019-02-25T08:37:43.502Z,64.01
2019-02-25T08:40:51.869Z,63.78
2019-02-25T08:43:31.895Z,63.44
2019-02-25T08:46:18.557Z,63.19
2019-02-25T08:48:58.460Z,62.69
2019-02-25T08:51:25.501Z,62.63
2019-02-25T08:53:52.558Z,62.86
2019-02-25T08:56:19.709Z,62.71
2019-02-25T08:58:46.780Z,62.28
2019-02-25T09:01:15.384Z,61.98
2019-02-25T09:03:42.709Z,61.61
2019-02-25T09:06:09.766Z,61.30
2019-02-25T09:08:36.817Z,60.97
2019-02-25T09:11:03.878Z,60.80
2019-02-25T09:13:30.937Z,60.79
2019-02-25T09:15:57.985Z,60.32
2019-02-25T09:18:25.044Z,60.04
2019-02-25T09:20:52.104Z,59.92
2019-02-25T09:23:19.186Z,59.79
2019-02-25T09:25:46.260Z,59.69
2019-02-25T09:28:13.317Z,59.65
2019-02-25T09:30:40.376Z,59.62
2019-02-25T09:33:07.431Z,59.50
2019-02-25T09:35:34.546Z,59.39
2019-02-25T09:38:01.606Z,59.32
2019-02-25T09:40:28.642Z,59.10
2019-02-25T09:42:55.720Z,58.77
2019-02-25T09:45:22.763Z,58.46
2019-02-25T09:47:49.798Z,58.17
2019-02-25T09:50:16.859Z,58.30
2019-02-25T09:52:43.910Z,58.06
2019-02-25T09:55:12.378Z,57.87
2019-02-25T09:57:39.448Z,57.74
2019-02-25T10:00:09.452Z,57.54
2019-02-25T10:02:36.511Z,57.40
2019-02-25T10:05:04.258Z,57.16
2019-02-25T10:07:31.326Z,56.63
2019-02-25T10:09:58.381Z,56.25
2019-02-25T10:12:25.420Z,56.00
2019-02-25T10:14:52.487Z,55.22
2019-02-25T10:17:23.638Z,54.76
2019-02-25T10:19:48.491Z,54.17
2019-02-25T10:22:15.568Z,53.20
2019-02-25T10:24:42.635Z,52.50
2019-02-25T10:27:09.727Z,51.80
2019-02-25T10:29:36.786Z,50.80
2019-02-25T10:32:04.835Z,49.97
2019-02-25T10:34:32.805Z,49.54
2019-02-25T10:36:59.861Z,49.22
2019-02-25T10:39:26.928Z,48.43
2019-02-25T10:41:55.506Z,47.95
2019-02-25T10:44:22.925Z,47.71
2019-02-25T10:46:49.971Z,47.12
2019-02-25T10:49:17.019Z,46.59
2019-02-25T10:51:45.622Z,46.42
2019-02-25T10:54:12.714Z,45.96
2019-02-25T10:56:43.560Z,45.52
2019-02-25T10:59:10.623Z,45.17
2019-02-25T11:01:39.259Z,44.89
2019-02-25T11:04:06.633Z,44.53
2019-02-25T11:06:35.525Z,45.32
2019-02-25T11:09:32.041Z,45.38
2019-02-25T11:12:00.110Z,47.04
2019-02-25T11:14:35.857Z,46.43
2019-02-25T11:17:09.920Z,46.08
2019-02-25T11:19:36.950Z,45.86
2019-02-25T11:22:05.590Z,45.80
2019-02-25T11:24:33.024Z,45.87
2019-02-25T11:27:01.124Z,45.22
2019-02-25T11:29:35.072Z,44.16
2019-02-25T11:32:02.120Z,43.38
2019-02-25T11:34:31.085Z,43.11
2019-02-25T11:37:04.272Z,41.78
2019-02-25T11:39:32.605Z,41.78
2019-02-25T11:42:08.023Z,41.99
2019-02-25T11:45:03.675Z,41.25
2019-02-25T11:47:40.012Z,41.25
2019-02-25T11:50:09.257Z,40.62
2019-02-25T11:52:50.610Z,39.93
2019-02-25T11:55:37.131Z,39.93
2019-02-25T11:58:04.180Z,39.95
2019-02-25T12:00:31.246Z,39.66
2019-02-25T12:03:17.870Z,40.06
2019-02-25T12:05:44.925Z,39.64
2019-02-25T12:08:11.995Z,39.65
2019-02-25T12:10:39.032Z,39.33
2019-02-25T12:13:06.110Z,38.88
2019-02-25T12:15:33.257Z,38.64
2019-02-25T12:18:00.319Z,38.00
2019-02-25T12:20:27.368Z,38.26
2019-02-25T12:22:54.385Z,38.38
2019-02-25T12:25:21.440Z,38.60
2019-02-25T12:27:48.479Z,39.05
2019-02-25T12:30:16.744Z,37.87
2019-02-25T12:32:43.823Z,38.13
2019-02-25T12:35:10.862Z,38.73
2019-02-25T12:37:37.902Z,38.12
2019-02-25T12:40:05.096Z,37.96
2019-02-25T12:42:32.498Z,38.07
2019-02-25T12:44:59.556Z,38.01
2019-02-25T12:47:26.606Z,38.67
2019-02-25T12:49:53.664Z,39.12
2019-02-25T12:52:20.690Z,37.85
2019-02-25T12:54:47.725Z,38.63
2019-02-25T12:57:14.776Z,38.17
2019-02-25T12:59:41.800Z,38.04
2019-02-25T13:02:08.843Z,38.28
2019-02-25T13:04:35.870Z,38.38
2019-02-25T13:07:02.924Z,38.59
2019-02-25T13:09:29.964Z,38.90
2019-02-25T13:11:57.012Z,39.07
2019-02-25T13:14:24.045Z,39.48
2019-02-25T13:16:51.372Z,40.02
2019-02-25T13:19:18.417Z,40.19
2019-02-25T13:21:45.744Z,40.43
2019-02-25T13:24:12.795Z,40.17
2019-02-25T13:26:39.823Z,40.47
2019-02-25T13:29:06.879Z,40.54
2019-02-25T13:31:33.938Z,40.97
2019-02-25T13:34:00.987Z,41.39
2019-02-25T13:36:28.029Z,41.88
2019-02-25T13:38:55.093Z,42.32
2019-02-25T13:41:22.145Z,42.49
2019-02-25T13:43:49.179Z,42.34
2019-02-25T13:46:16.326Z,42.59
2019-02-25T13:48:43.360Z,42.77
2019-02-25T13:51:10.418Z,42.88
2019-02-25T13:53:37.455Z,42.36
2019-02-25T13:56:04.585Z,42.33
2019-02-25T13:58:31.639Z,42.28
2019-02-25T14:00:58.788Z,41.59
2019-02-25T14:03:25.915Z,41.33
2019-02-25T14:05:52.970Z,41.24
2019-02-25T14:08:20.061Z,41.38
2019-02-25T14:10:47.321Z,41.00
2019-02-25T14:13:14.390Z,40.83
2019-02-25T14:15:41.477Z,40.54
2019-02-25T14:18:08.533Z,40.50
2019-02-25T14:20:35.601Z,40.41
2019-02-25T14:23:02.656Z,40.05
2019-02-25T14:25:29.747Z,39.73
2019-02-25T14:27:57.005Z,39.13
2019-02-25T14:30:24.143Z,38.53
2019-02-25T14:32:53.496Z,38.38
2019-02-25T14:35:21.398Z,38.06
2019-02-25T14:37:48.464Z,38.11
2019-02-25T14:40:17.133Z,37.78
2019-02-25T14:42:53.728Z,37.72
2019-02-25T14:45:28.682Z,37.31
2019-02-25T14:48:08.020Z,37.33
2019-02-25T14:53:44.803Z,37.54
2019-02-25T14:56:18.210Z,37.62
2019-02-25T14:58:46.056Z,37.81
2019-02-25T15:01:21.051Z,38.13
2019-02-25T15:03:56.487Z,38.35
2019-02-25T15:06:32.510Z,38.47
2019-02-25T15:09:09.819Z,38.71
2019-02-25T15:11:42.371Z,42.57
2019-02-25T15:14:10.671Z,43.04
2019-02-25T15:16:44.604Z,40.64
2019-02-25T15:19:13.365Z,39.23
2019-02-25T15:21:47.607Z,38.91
2019-02-25T15:24:21.874Z,37.82
2019-02-25T15:26:48.961Z,37.54
2019-02-25T15:29:16.032Z,37.88
2019-02-25T15:31:44.439Z,37.86
2019-02-25T15:34:19.303Z,38.02
2019-02-25T15:36:53.391Z,37.69
2019-02-25T15:39:20.501Z,37.07
2019-02-25T15:41:48.697Z,37.29
2019-02-25T15:44:16.510Z,37.38
2019-02-25T15:46:43.580Z,37.84
2019-02-25T15:49:12.740Z,38.64
2019-02-25T15:51:41.564Z,39.51
2019-02-25T15:54:10.126Z,40.59
2019-02-25T15:56:37.460Z,41.70
2019-02-25T15:59:04.518Z,42.63
2019-02-25T16:01:31.753Z,43.32
2019-02-25T16:04:02.243Z,43.91
2019-02-25T16:06:29.207Z,44.36
2019-02-25T16:09:07.730Z,45.13
2019-02-25T16:11:34.931Z,46.16
2019-02-25T16:14:02.932Z,47.21
2019-02-25T16:16:41.089Z,48.19
2019-02-25T16:19:08.181Z,48.98
2019-02-25T16:21:35.253Z,50.00
2019-02-25T16:24:04.816Z,50.82
2019-02-25T16:26:42.767Z,51.44
2019-02-25T16:29:16.184Z,52.04
2019-02-25T16:31:43.271Z,53.37
2019-02-25T16:34:29.844Z,54.63
2019-02-25T16:36:58.244Z,54.63
2019-02-25T16:39:32.585Z,55.22
2019-02-25T16:41:59.686Z,55.69
2019-02-25T16:44:26.753Z,56.21
2019-02-25T16:46:54.167Z,56.79
2019-02-25T16:49:21.292Z,57.29
2019-02-25T16:51:48.374Z,57.73
2019-02-25T16:54:18.968Z,58.27
2019-02-25T16:56:50.521Z,58.69
2019-02-25T16:59:18.571Z,58.93
2019-02-25T17:01:55.826Z,59.38
2019-02-25T17:04:31.730Z,59.62
2019-02-25T17:07:08.858Z,59.71
2019-02-25T17:09:37.111Z,59.70
2019-02-25T17:12:11.629Z,59.72
2019-02-25T17:14:40.492Z,60.21
2019-02-25T17:17:18.306Z,60.37
2019-02-25T17:19:45.412Z,60.62
2019-02-25T17:22:12.503Z,61.24
2019-02-25T17:24:39.574Z,61.64
2019-02-25T17:27:08.937Z,61.99
2019-02-25T17:29:36.232Z,62.43
2019-02-25T17:32:03.751Z,62.82
2019-02-25T17:34:32.179Z,62.80
2019-02-25T17:36:59.783Z,62.63
2019-02-25T17:39:26.865Z,62.56
2019-02-25T17:41:54.051Z,62.79
2019-02-25T17:44:23.370Z,63.11
2019-02-25T17:46:50.253Z,63.62
2019-02-25T17:49:19.085Z,63.85
2019-02-25T17:51:46.379Z,64.59
2019-02-25T17:54:14.655Z,64.82
2019-02-25T17:56:43.170Z,65.13
2019-02-25T17:59:13.655Z,65.17
2019-02-25T18:01:41.763Z,65.10
2019-02-25T18:04:10.854Z,65.00
2019-02-25T18:06:41.496Z,65.29
2019-02-25T18:09:09.254Z,65.57
2019-02-25T18:11:38.942Z,65.60
2019-02-25T18:14:06.055Z,65.73
2019-02-25T18:16:36.795Z,65.68
2019-02-25T18:19:02.257Z,65.69
2019-02-25T18:21:29.372Z,65.90
2019-02-25T18:23:56.830Z,65.78
2019-02-25T18:26:24.236Z,65.65
2019-02-25T18:28:52.626Z,65.67
2019-02-25T18:31:20.590Z,65.76
2019-02-25T18:33:48.533Z,65.64
2019-02-25T18:36:18.077Z,65.75
2019-02-25T18:38:46.445Z,66.04
2019-02-25T18:41:14.380Z,66.37
2019-02-25T18:43:42.989Z,66.56
2019-02-25T18:46:11.486Z,66.45
2019-02-25T18:48:40.722Z,66.54
2019-02-25T18:51:08.177Z,66.54
2019-02-25T18:53:35.633Z,66.61
2019-02-25T18:56:02.806Z,66.63
2019-02-25T18:58:31.100Z,66.86
2019-02-25T19:00:59.144Z,66.85
2019-02-25T19:03:26.952Z,66.87
2019-02-25T19:05:55.387Z,66.84
2019-02-25T19:08:24.627Z,66.82
2019-02-25T19:10:53.185Z,66.80
2019-02-25T19:13:23.344Z,66.90
2019-02-25T19:15:53.105Z,67.10
2019-02-25T19:18:21.213Z,67.46
2019-02-25T19:20:48.462Z,67.60
2019-02-25T19:23:16.584Z,67.82
2019-02-25T19:25:45.515Z,68.80
2019-02-25T19:28:16.567Z,68.86
2019-02-25T19:30:42.042Z,69.32
2019-02-25T19:33:11.400Z,69.76
2019-02-25T19:35:40.860Z,69.92
2019-02-25T19:38:10.229Z,69.89
2019-02-25T19:40:40.379Z,69.75
2019-02-25T19:43:07.140Z,70.17
2019-02-25T19:45:36.385Z,69.96
2019-02-25T19:48:05.358Z,69.81
2019-02-25T19:50:38.528Z,70.04
2019-02-25T19:53:07.654Z,70.34
2019-02-25T19:55:36.175Z,70.32
2019-02-25T19:58:04.514Z,70.33
2019-02-25T20:00:33.860Z,70.01
2019-02-25T20:03:05.492Z,70.52
2019-02-25T20:05:33.171Z,70.81
2019-02-25T20:08:04.389Z,70.50
2019-02-25T20:10:32.208Z,70.28
2019-02-25T20:13:05.708Z,70.27
2019-02-25T20:15:32.617Z,70.19
2019-02-25T20:17:59.915Z,70.16
2019-02-25T20:20:34.617Z,70.30
2019-02-25T20:23:03.867Z,70.64
2019-02-25T20:25:31.252Z,70.97
2019-02-25T20:28:00.329Z,71.00
2019-02-25T20:30:28.834Z,71.02
2019-02-25T20:32:56.788Z,70.89
2019-02-25T20:35:26.786Z,70.92
2019-02-25T20:37:55.751Z,70.79
2019-02-25T20:40:26.021Z,70.67
2019-02-25T20:42:56.452Z,70.72
2019-02-25T20:45:27.738Z,71.26
2019-02-25T20:47:57.221Z,71.61
2019-02-25T20:50:24.771Z,71.67
2019-02-25T20:52:52.212Z,71.61
2019-02-25T20:55:19.390Z,71.44
2019-02-25T20:57:46.837Z,71.62
2019-02-25T21:00:17.731Z,71.89
2019-02-25T21:02:46.678Z,72.15
2019-02-25T21:05:16.912Z,72.22
2019-02-25T21:07:44.983Z,72.36
2019-02-25T21:10:12.425Z,72.30
2019-02-25T21:12:39.505Z,72.14
2019-02-25T21:15:08.458Z,72.12
2019-02-25T21:17:37.765Z,72.17
2019-02-25T21:20:07.124Z,72.24
2019-02-25T21:22:36.252Z,72.20
2019-02-25T21:25:04.863Z,72.25
2019-02-25T21:27:34.644Z,72.27
2019-02-25T21:30:03.877Z,72.28
2019-02-25T21:32:30.742Z,72.33
2019-02-25T21:34:59.555Z,72.51
2019-02-25T21:37:27.721Z,72.65
2019-02-25T21:39:56.636Z,72.69
2019-02-25T21:42:26.741Z,72.83
2019-02-25T21:44:54.689Z,72.98
2019-02-25T21:47:24.304Z,73.11
2019-02-25T21:49:52.462Z,73.08
2019-02-25T21:52:20.774Z,72.93
2019-02-25T21:54:47.841Z,73.13
2019-02-25T21:57:14.893Z,73.28
2019-02-25T21:59:41.997Z,73.24
2019-02-25T22:02:09.066Z,73.23
2019-02-25T22:04:38.493Z,73.30
2019-02-25T22:07:05.065Z,73.50
2019-02-25T22:09:36.984Z,73.65
2019-02-25T22:12:01.111Z,73.53
2019-02-25T22:14:28.157Z,73.47
2019-02-25T22:16:56.631Z,73.66
2019-02-25T22:19:24.167Z,73.75
2019-02-25T22:21:53.573Z,73.71
2019-02-25T22:24:24.776Z,73.65
2019-02-25T22:26:51.206Z,73.79
2019-02-25T22:29:18.125Z,73.87
2019-02-25T22:31:45.169Z,73.98
2019-02-25T22:34:13.124Z,73.97
2019-02-25T22:36:43.778Z,74.12
2019-02-25T22:39:10.799Z,74.37
2019-02-25T22:41:37.847Z,74.49
2019-02-25T22:44:06.371Z,74.56
2019-02-25T22:46:36.833Z,74.56
2019-02-25T22:49:03.486Z,74.65
2019-02-25T22:51:33.206Z,74.69
2019-02-25T22:54:00.769Z,74.68
2019-02-25T22:56:28.218Z,74.73
2019-02-25T22:58:56.603Z,74.66
2019-02-25T23:01:24.316Z,74.71
2019-02-25T23:03:54.528Z,74.72
2019-02-25T23:06:21.320Z,74.79
2019-02-25T23:08:51.010Z,74.74
2019-02-25T23:11:19.839Z,74.72
2019-02-25T23:13:47.868Z,74.66
2019-02-25T23:16:18.673Z,74.64
2019-02-25T23:18:47.768Z,74.52
2019-02-25T23:21:23.434Z,74.45
2019-02-25T23:23:44.299Z,74.49
2019-02-25T23:26:12.604Z,74.54
2019-02-25T23:28:40.274Z,74.67
2019-02-25T23:31:07.313Z,74.84
2019-02-25T23:33:38.148Z,74.92
2019-02-25T23:36:03.370Z,75.11
2019-02-25T23:38:30.428Z,75.18
2019-02-25T23:41:01.311Z,75.03
2019-02-25T23:43:26.478Z,74.81
2019-02-25T23:45:53.557Z,74.89
2019-02-25T23:48:20.578Z,75.08
2019-02-25T23:50:48.507Z,75.16
2019-02-25T23:53:16.560Z,75.07
2019-02-25T23:55:47.129Z,75.09
2019-02-25T23:58:14.785Z,75.20
